sensor_id;sensor_type;location;lat;lon;timestamp;P1;durP1;ratioP1;P2;durP2;ratioP2
8663;SDS011;4369;47.842;13.096;2022-07-03T00:01:24;2.40;;;2.20;;
8663;SDS011;4369;47.842;13.096;2022-07-03T00:03:51;2.50;;;2.30;;
8663;SDS011;4369;47.842;13.096;2022-07-03T00:06:20;2.30;;;2.10;;
8663;SDS011;4369;47.842;13.096;2022-07-03T00:08:47;3.73;;;2.53;;
8663;SDS011;4369;47.842;13.096;2022-07-03T00:11:14;2.40;;;2.20;;
8663;SDS011;4369;47.842;13.096;2022-07-03T00:13:41;2.30;;;2.10;;
8663;SDS011;4369;47.842;13.096;2022-07-03T00:16:08;2.30;;;2.20;;
8663;SDS011;4369;47.842;13.096;2022-07-03T00:18:35;5.33;;;2.20;;
8663;SDS011;4369;47.842;13.096;2022-07-03T00:21:03;2.30;;;2.20;;
8663;SDS011;4369;47.842;13.096;2022-07-03T00:23:36;3.33;;;2.40;;
8663;SDS011;4369;47.842;13.096;2022-07-03T00:26:07;4.57;;;2.30;;
8663;SDS011;4369;47.842;13.096;2022-07-03T00:28:37;2.77;;;2.30;;
8663;SDS011;4369;47.842;13.096;2022-07-03T00:31:04;2.77;;;2.60;;
8663;SDS011;4369;47.842;13.096;2022-07-03T00:33:32;4.00;;;2.50;;
8663;SDS011;4369;47.842;13.096;2022-07-03T00:36:00;3.50;;;2.77;;
8663;SDS011;4369;47.842;13.096;2022-07-03T00:38:28;2.70;;;2.50;;
8663;SDS011;4369;47.842;13.096;2022-07-03T00:40:57;3.13;;;2.60;;
8663;SDS011;4369;47.842;13.096;2022-07-03T00:43:25;4.20;;;2.83;;
8663;SDS011;4369;47.842;13.096;2022-07-03T00:45:52;3.17;;;2.40;;
8663;SDS011;4369;47.842;13.096;2022-07-03T00:48:20;3.20;;;2.40;;
8663;SDS011;4369;47.842;13.096;2022-07-03T00:50:48;2.80;;;2.60;;
8663;SDS011;4369;47.842;13.096;2022-07-03T00:53:17;2.60;;;2.40;;
8663;SDS011;4369;47.842;13.096;2022-07-03T00:55:47;3.57;;;2.77;;
8663;SDS011;4369;47.842;13.096;2022-07-03T00:58:16;4.30;;;2.83;;
8663;SDS011;4369;47.842;13.096;2022-07-03T01:00:43;2.33;;;2.23;;
8663;SDS011;4369;47.842;13.096;2022-07-03T01:03:13;2.80;;;2.60;;
8663;SDS011;4369;47.842;13.096;2022-07-03T01:05:42;3.20;;;2.70;;
8663;SDS011;4369;47.842;13.096;2022-07-03T01:08:12;2.87;;;2.60;;
8663;SDS011;4369;47.842;13.096;2022-07-03T01:10:49;3.23;;;2.50;;
8663;SDS011;4369;47.842;13.096;2022-07-03T01:13:25;4.37;;;2.70;;
8663;SDS011;4369;47.842;13.096;2022-07-03T01:15:58;2.80;;;2.60;;
8663;SDS011;4369;47.842;13.096;2022-07-03T01:18:35;2.97;;;2.70;;
8663;SDS011;4369;47.842;13.096;2022-07-03T01:21:06;2.70;;;2.50;;
8663;SDS011;4369;47.842;13.096;2022-07-03T01:27:00;2.63;;;2.40;;
8663;SDS011;4369;47.842;13.096;2022-07-03T01:29:35;2.67;;;2.47;;
8663;SDS011;4369;47.842;13.096;2022-07-03T01:32:08;3.07;;;2.60;;
8663;SDS011;4369;47.842;13.096;2022-07-03T01:34:37;4.50;;;2.57;;
8663;SDS011;4369;47.842;13.096;2022-07-03T01:40:02;2.80;;;2.70;;
8663;SDS011;4369;47.842;13.096;2022-07-03T01:42:32;3.10;;;2.90;;
8663;SDS011;4369;47.842;13.096;2022-07-03T01:45:02;3.03;;;2.83;;
8663;SDS011;4369;47.842;13.096;2022-07-03T01:47:31;2.73;;;2.53;;
8663;SDS011;4369;47.842;13.096;2022-07-03T01:50:00;3.27;;;2.87;;
8663;SDS011;4369;47.842;13.096;2022-07-03T01:52:28;2.90;;;2.70;;
8663;SDS011;4369;47.842;13.096;2022-07-03T01:54:57;2.93;;;2.73;;
8663;SDS011;4369;47.842;13.096;2022-07-03T01:57:27;3.47;;;3.00;;
8663;SDS011;4369;47.842;13.096;2022-07-03T02:00:03;2.67;;;2.53;;
8663;SDS011;4369;47.842;13.096;2022-07-03T02:02:32;3.20;;;2.90;;
8663;SDS011;4369;47.842;13.096;2022-07-03T02:05:02;2.77;;;2.60;;
8663;SDS011;4369;47.842;13.096;2022-07-03T02:07:37;2.57;;;2.47;;
8663;SDS011;4369;47.842;13.096;2022-07-03T02:10:08;3.00;;;2.70;;
8663;SDS011;4369;47.842;13.096;2022-07-03T02:12:38;2.90;;;2.70;;
8663;SDS011;4369;47.842;13.096;2022-07-03T02:15:10;4.50;;;2.90;;
8663;SDS011;4369;47.842;13.096;2022-07-03T02:17:43;3.20;;;2.90;;
8663;SDS011;4369;47.842;13.096;2022-07-03T02:20:12;2.63;;;2.43;;
8663;SDS011;4369;47.842;13.096;2022-07-03T02:22:41;3.93;;;2.77;;
8663;SDS011;4369;47.842;13.096;2022-07-03T02:25:12;3.50;;;2.80;;
8663;SDS011;4369;47.842;13.096;2022-07-03T02:27:47;3.10;;;2.70;;
8663;SDS011;4369;47.842;13.096;2022-07-03T02:30:21;3.73;;;2.83;;
8663;SDS011;4369;47.842;13.096;2022-07-03T02:32:50;3.00;;;2.80;;
8663;SDS011;4369;47.842;13.096;2022-07-03T02:35:18;2.90;;;2.70;;
8663;SDS011;4369;47.842;13.096;2022-07-03T02:37:53;2.87;;;2.67;;
8663;SDS011;4369;47.842;13.096;2022-07-03T02:40:26;4.00;;;3.00;;
8663;SDS011;4369;47.842;13.096;2022-07-03T02:43:01;3.47;;;2.70;;
8663;SDS011;4369;47.842;13.096;2022-07-03T02:45:38;3.43;;;3.13;;
8663;SDS011;4369;47.842;13.096;2022-07-03T02:48:11;3.70;;;3.00;;
8663;SDS011;4369;47.842;13.096;2022-07-03T02:50:47;3.10;;;2.90;;
8663;SDS011;4369;47.842;13.096;2022-07-03T02:53:19;3.33;;;2.87;;
8663;SDS011;4369;47.842;13.096;2022-07-03T02:55:54;3.43;;;2.87;;
8663;SDS011;4369;47.842;13.096;2022-07-03T03:01:29;3.47;;;2.87;;
8663;SDS011;4369;47.842;13.096;2022-07-03T03:04:07;3.27;;;3.00;;
8663;SDS011;4369;47.842;13.096;2022-07-03T03:06:38;3.10;;;2.90;;
8663;SDS011;4369;47.842;13.096;2022-07-03T03:09:14;4.30;;;2.80;;
8663;SDS011;4369;47.842;13.096;2022-07-03T03:11:45;3.40;;;3.17;;
8663;SDS011;4369;47.842;13.096;2022-07-03T03:14:18;2.90;;;2.70;;
8663;SDS011;4369;47.842;13.096;2022-07-03T03:16:47;5.57;;;3.13;;
8663;SDS011;4369;47.842;13.096;2022-07-03T03:19:15;3.03;;;2.80;;
8663;SDS011;4369;47.842;13.096;2022-07-03T03:21:52;3.40;;;3.20;;
8663;SDS011;4369;47.842;13.096;2022-07-03T03:24:24;3.60;;;2.97;;
8663;SDS011;4369;47.842;13.096;2022-07-03T03:26:51;3.20;;;2.90;;
8663;SDS011;4369;47.842;13.096;2022-07-03T03:29:20;3.23;;;3.03;;
8663;SDS011;4369;47.842;13.096;2022-07-03T03:31:47;3.33;;;2.97;;
8663;SDS011;4369;47.842;13.096;2022-07-03T03:34:14;3.73;;;3.00;;
8663;SDS011;4369;47.842;13.096;2022-07-03T03:36:42;4.13;;;3.20;;
8663;SDS011;4369;47.842;13.096;2022-07-03T03:39:08;3.07;;;2.87;;
8663;SDS011;4369;47.842;13.096;2022-07-03T03:41:35;3.57;;;3.07;;
8663;SDS011;4369;47.842;13.096;2022-07-03T03:44:03;4.80;;;2.90;;
8663;SDS011;4369;47.842;13.096;2022-07-03T03:46:31;4.50;;;3.07;;
8663;SDS011;4369;47.842;13.096;2022-07-03T03:48:59;3.13;;;2.93;;
8663;SDS011;4369;47.842;13.096;2022-07-03T03:51:26;3.77;;;3.23;;
8663;SDS011;4369;47.842;13.096;2022-07-03T03:53:52;3.00;;;2.70;;
8663;SDS011;4369;47.842;13.096;2022-07-03T03:56:19;3.50;;;3.20;;
8663;SDS011;4369;47.842;13.096;2022-07-03T03:58:46;4.13;;;3.00;;
8663;SDS011;4369;47.842;13.096;2022-07-03T04:04:07;3.43;;;3.13;;
8663;SDS011;4369;47.842;13.096;2022-07-03T04:06:33;3.20;;;2.90;;
8663;SDS011;4369;47.842;13.096;2022-07-03T04:12:22;5.10;;;3.10;;
8663;SDS011;4369;47.842;13.096;2022-07-03T04:14:49;3.10;;;2.83;;
8663;SDS011;4369;47.842;13.096;2022-07-03T04:17:17;5.03;;;3.00;;
8663;SDS011;4369;47.842;13.096;2022-07-03T04:19:44;4.20;;;3.80;;
8663;SDS011;4369;47.842;13.096;2022-07-03T04:22:11;3.77;;;3.27;;
8663;SDS011;4369;47.842;13.096;2022-07-03T04:24:38;4.33;;;3.10;;
8663;SDS011;4369;47.842;13.096;2022-07-03T04:27:05;3.87;;;3.40;;
8663;SDS011;4369;47.842;13.096;2022-07-03T04:29:31;3.20;;;3.00;;
8663;SDS011;4369;47.842;13.096;2022-07-03T04:31:58;4.50;;;3.37;;
8663;SDS011;4369;47.842;13.096;2022-07-03T04:34:26;3.70;;;3.30;;
8663;SDS011;4369;47.842;13.096;2022-07-03T04:36:53;3.20;;;3.00;;
8663;SDS011;4369;47.842;13.096;2022-07-03T04:39:20;3.50;;;3.30;;
8663;SDS011;4369;47.842;13.096;2022-07-03T04:41:47;3.77;;;2.97;;
8663;SDS011;4369;47.842;13.096;2022-07-03T04:44:14;6.83;;;3.30;;
8663;SDS011;4369;47.842;13.096;2022-07-03T04:46:41;4.45;;;3.42;;
8663;SDS011;4369;47.842;13.096;2022-07-03T04:49:07;3.73;;;3.43;;
8663;SDS011;4369;47.842;13.096;2022-07-03T04:51:35;4.47;;;3.10;;
8663;SDS011;4369;47.842;13.096;2022-07-03T04:54:02;3.17;;;2.87;;
8663;SDS011;4369;47.842;13.096;2022-07-03T04:56:29;3.40;;;3.20;;
8663;SDS011;4369;47.842;13.096;2022-07-03T04:58:56;3.70;;;3.03;;
8663;SDS011;4369;47.842;13.096;2022-07-03T05:01:23;3.20;;;2.90;;
8663;SDS011;4369;47.842;13.096;2022-07-03T05:03:50;3.95;;;3.60;;
8663;SDS011;4369;47.842;13.096;2022-07-03T05:06:17;3.70;;;3.40;;
8663;SDS011;4369;47.842;13.096;2022-07-03T05:08:45;3.50;;;3.27;;
8663;SDS011;4369;47.842;13.096;2022-07-03T05:11:12;3.10;;;2.90;;
8663;SDS011;4369;47.842;13.096;2022-07-03T05:13:38;3.50;;;3.30;;
8663;SDS011;4369;47.842;13.096;2022-07-03T05:16:05;3.47;;;3.17;;
8663;SDS011;4369;47.842;13.096;2022-07-03T05:18:33;3.30;;;3.00;;
8663;SDS011;4369;47.842;13.096;2022-07-03T05:21:00;3.67;;;3.37;;
8663;SDS011;4369;47.842;13.096;2022-07-03T05:23:27;3.00;;;2.80;;
8663;SDS011;4369;47.842;13.096;2022-07-03T05:25:56;4.17;;;3.30;;
8663;SDS011;4369;47.842;13.096;2022-07-03T05:28:28;3.40;;;3.10;;
8663;SDS011;4369;47.842;13.096;2022-07-03T05:30:55;3.30;;;3.00;;
8663;SDS011;4369;47.842;13.096;2022-07-03T05:33:22;3.40;;;3.20;;
8663;SDS011;4369;47.842;13.096;2022-07-03T05:35:49;3.10;;;2.90;;
8663;SDS011;4369;47.842;13.096;2022-07-03T05:38:16;3.47;;;3.17;;
8663;SDS011;4369;47.842;13.096;2022-07-03T05:44:27;3.60;;;3.23;;
8663;SDS011;4369;47.842;13.096;2022-07-03T05:46:54;3.90;;;3.30;;
8663;SDS011;4369;47.842;13.096;2022-07-03T05:49:21;3.60;;;3.30;;
8663;SDS011;4369;47.842;13.096;2022-07-03T05:51:48;3.23;;;3.03;;
8663;SDS011;4369;47.842;13.096;2022-07-03T05:54:15;4.60;;;3.50;;
8663;SDS011;4369;47.842;13.096;2022-07-03T05:56:42;3.17;;;2.97;;
8663;SDS011;4369;47.842;13.096;2022-07-03T05:59:09;3.50;;;3.30;;
8663;SDS011;4369;47.842;13.096;2022-07-03T06:01:37;3.60;;;3.30;;
8663;SDS011;4369;47.842;13.096;2022-07-03T06:04:04;4.20;;;3.20;;
8663;SDS011;4369;47.842;13.096;2022-07-03T06:06:31;3.70;;;3.20;;
8663;SDS011;4369;47.842;13.096;2022-07-03T06:08:57;3.10;;;2.90;;
8663;SDS011;4369;47.842;13.096;2022-07-03T06:11:24;3.43;;;3.13;;
8663;SDS011;4369;47.842;13.096;2022-07-03T06:13:51;4.97;;;3.30;;
8663;SDS011;4369;47.842;13.096;2022-07-03T06:16:18;3.67;;;3.37;;
8663;SDS011;4369;47.842;13.096;2022-07-03T06:18:46;3.88;;;3.58;;
8663;SDS011;4369;47.842;13.096;2022-07-03T06:21:14;3.87;;;3.53;;
8663;SDS011;4369;47.842;13.096;2022-07-03T06:23:41;3.97;;;3.67;;
8663;SDS011;4369;47.842;13.096;2022-07-03T06:26:08;5.80;;;3.97;;
8663;SDS011;4369;47.842;13.096;2022-07-03T06:28:35;3.90;;;3.60;;
8663;SDS011;4369;47.842;13.096;2022-07-03T06:31:02;3.73;;;3.43;;
8663;SDS011;4369;47.842;13.096;2022-07-03T06:33:28;3.80;;;3.50;;
8663;SDS011;4369;47.842;13.096;2022-07-03T06:35:57;4.17;;;3.73;;
8663;SDS011;4369;47.842;13.096;2022-07-03T06:38:24;6.17;;;3.30;;
8663;SDS011;4369;47.842;13.096;2022-07-03T06:40:51;3.63;;;3.33;;
8663;SDS011;4369;47.842;13.096;2022-07-03T06:43:18;3.50;;;3.30;;
8663;SDS011;4369;47.842;13.096;2022-07-03T06:45:45;4.20;;;3.40;;
8663;SDS011;4369;47.842;13.096;2022-07-03T06:48:11;3.73;;;3.43;;
8663;SDS011;4369;47.842;13.096;2022-07-03T06:50:38;3.80;;;3.50;;
8663;SDS011;4369;47.842;13.096;2022-07-03T06:53:07;4.37;;;3.40;;
8663;SDS011;4369;47.842;13.096;2022-07-03T06:55:33;3.70;;;3.30;;
8663;SDS011;4369;47.842;13.096;2022-07-03T06:58:00;4.93;;;3.47;;
8663;SDS011;4369;47.842;13.096;2022-07-03T07:00:27;3.90;;;3.50;;
8663;SDS011;4369;47.842;13.096;2022-07-03T07:02:55;3.67;;;3.47;;
8663;SDS011;4369;47.842;13.096;2022-07-03T07:05:21;3.60;;;3.30;;
8663;SDS011;4369;47.842;13.096;2022-07-03T07:07:48;4.57;;;3.17;;
8663;SDS011;4369;47.842;13.096;2022-07-03T07:10:17;5.40;;;3.27;;
8663;SDS011;4369;47.842;13.096;2022-07-03T07:12:44;4.30;;;3.60;;
8663;SDS011;4369;47.842;13.096;2022-07-03T07:15:11;3.80;;;3.50;;
8663;SDS011;4369;47.842;13.096;2022-07-03T07:17:38;3.37;;;3.07;;
8663;SDS011;4369;47.842;13.096;2022-07-03T07:20:05;3.03;;;2.83;;
8663;SDS011;4369;47.842;13.096;2022-07-03T07:22:33;3.50;;;3.20;;
8663;SDS011;4369;47.842;13.096;2022-07-03T07:25:00;3.67;;;3.37;;
8663;SDS011;4369;47.842;13.096;2022-07-03T07:27:28;3.50;;;3.13;;
8663;SDS011;4369;47.842;13.096;2022-07-03T07:29:55;3.50;;;3.20;;
8663;SDS011;4369;47.842;13.096;2022-07-03T07:32:22;3.80;;;3.50;;
8663;SDS011;4369;47.842;13.096;2022-07-03T07:34:49;3.20;;;2.90;;
8663;SDS011;4369;47.842;13.096;2022-07-03T07:37:15;3.43;;;3.20;;
8663;SDS011;4369;47.842;13.096;2022-07-03T07:39:42;3.43;;;3.13;;
8663;SDS011;4369;47.842;13.096;2022-07-03T07:42:09;2.97;;;2.77;;
8663;SDS011;4369;47.842;13.096;2022-07-03T07:44:37;3.40;;;3.10;;
8663;SDS011;4369;47.842;13.096;2022-07-03T07:47:04;4.33;;;3.30;;
8663;SDS011;4369;47.842;13.096;2022-07-03T07:49:31;3.43;;;3.10;;
8663;SDS011;4369;47.842;13.096;2022-07-03T07:51:58;3.13;;;2.93;;
8663;SDS011;4369;47.842;13.096;2022-07-03T07:54:25;2.80;;;2.60;;
8663;SDS011;4369;47.842;13.096;2022-07-03T07:56:51;3.20;;;3.00;;
8663;SDS011;4369;47.842;13.096;2022-07-03T07:59:18;3.30;;;2.93;;
8663;SDS011;4369;47.842;13.096;2022-07-03T08:01:47;3.10;;;2.80;;
8663;SDS011;4369;47.842;13.096;2022-07-03T08:04:31;3.10;;;2.90;;
8663;SDS011;4369;47.842;13.096;2022-07-03T08:07:15;2.80;;;2.60;;
8663;SDS011;4369;47.842;13.096;2022-07-03T08:09:42;2.90;;;2.70;;
8663;SDS011;4369;47.842;13.096;2022-07-03T08:12:09;3.33;;;2.90;;
8663;SDS011;4369;47.842;13.096;2022-07-03T08:14:36;2.30;;;2.20;;
8663;SDS011;4369;47.842;13.096;2022-07-03T08:17:04;2.40;;;2.30;;
8663;SDS011;4369;47.842;13.096;2022-07-03T08:19:31;2.73;;;2.60;;
8663;SDS011;4369;47.842;13.096;2022-07-03T08:21:58;2.80;;;2.60;;
8663;SDS011;4369;47.842;13.096;2022-07-03T08:24:26;3.37;;;2.50;;
8663;SDS011;4369;47.842;13.096;2022-07-03T08:26:53;3.43;;;2.90;;
8663;SDS011;4369;47.842;13.096;2022-07-03T08:29:20;3.00;;;2.80;;
8663;SDS011;4369;47.842;13.096;2022-07-03T08:31:46;2.77;;;2.57;;
8663;SDS011;4369;47.842;13.096;2022-07-03T08:34:15;3.07;;;2.77;;
8663;SDS011;4369;47.842;13.096;2022-07-03T08:36:42;3.00;;;2.80;;
8663;SDS011;4369;47.842;13.096;2022-07-03T08:39:09;3.13;;;2.80;;
8663;SDS011;4369;47.842;13.096;2022-07-03T08:41:36;3.50;;;3.20;;
8663;SDS011;4369;47.842;13.096;2022-07-03T08:44:04;3.43;;;2.80;;
8663;SDS011;4369;47.842;13.096;2022-07-03T08:46:32;3.00;;;2.80;;
8663;SDS011;4369;47.842;13.096;2022-07-03T08:49:00;3.67;;;2.90;;
8663;SDS011;4369;47.842;13.096;2022-07-03T08:51:30;2.80;;;2.53;;
8663;SDS011;4369;47.842;13.096;2022-07-03T08:53:59;3.03;;;2.73;;
8663;SDS011;4369;47.842;13.096;2022-07-03T08:56:26;2.90;;;2.70;;
8663;SDS011;4369;47.842;13.096;2022-07-03T08:58:54;3.60;;;3.20;;
8663;SDS011;4369;47.842;13.096;2022-07-03T09:01:23;4.77;;;2.87;;
8663;SDS011;4369;47.842;13.096;2022-07-03T09:03:51;3.00;;;2.70;;
8663;SDS011;4369;47.842;13.096;2022-07-03T09:06:18;3.00;;;2.80;;
8663;SDS011;4369;47.842;13.096;2022-07-03T09:08:48;2.97;;;2.83;;
8663;SDS011;4369;47.842;13.096;2022-07-03T09:11:16;2.80;;;2.70;;
8663;SDS011;4369;47.842;13.096;2022-07-03T09:13:43;2.70;;;2.60;;
8663;SDS011;4369;47.842;13.096;2022-07-03T09:16:14;2.87;;;2.77;;
8663;SDS011;4369;47.842;13.096;2022-07-03T09:18:42;2.80;;;2.60;;
8663;SDS011;4369;47.842;13.096;2022-07-03T09:21:11;3.13;;;2.70;;
8663;SDS011;4369;47.842;13.096;2022-07-03T09:23:39;3.30;;;3.10;;
8663;SDS011;4369;47.842;13.096;2022-07-03T09:26:11;2.97;;;2.80;;
8663;SDS011;4369;47.842;13.096;2022-07-03T09:28:43;3.20;;;2.87;;
8663;SDS011;4369;47.842;13.096;2022-07-03T09:31:12;3.53;;;3.20;;
8663;SDS011;4369;47.842;13.096;2022-07-03T09:33:50;3.20;;;2.90;;
8663;SDS011;4369;47.842;13.096;2022-07-03T09:36:20;3.03;;;2.83;;
8663;SDS011;4369;47.842;13.096;2022-07-03T09:38:48;4.43;;;2.57;;
8663;SDS011;4369;47.842;13.096;2022-07-03T09:41:16;3.30;;;3.07;;
8663;SDS011;4369;47.842;13.096;2022-07-03T09:43:43;2.73;;;2.63;;
8663;SDS011;4369;47.842;13.096;2022-07-03T09:46:10;2.70;;;2.53;;
8663;SDS011;4369;47.842;13.096;2022-07-03T09:48:38;4.53;;;3.13;;
8663;SDS011;4369;47.842;13.096;2022-07-03T09:51:13;2.83;;;2.73;;
8663;SDS011;4369;47.842;13.096;2022-07-03T09:53:48;3.15;;;2.88;;
8663;SDS011;4369;47.842;13.096;2022-07-03T09:56:18;2.30;;;2.20;;
8663;SDS011;4369;47.842;13.096;2022-07-03T09:58:58;2.47;;;2.28;;
8663;SDS011;4369;47.842;13.096;2022-07-03T10:01:35;3.30;;;2.40;;
8663;SDS011;4369;47.842;13.096;2022-07-03T10:04:14;2.50;;;2.30;;
8663;SDS011;4369;47.842;13.096;2022-07-03T10:06:52;2.25;;;2.10;;
8663;SDS011;4369;47.842;13.096;2022-07-03T10:09:21;2.05;;;1.95;;
8663;SDS011;4369;47.842;13.096;2022-07-03T10:11:50;2.40;;;2.20;;
8663;SDS011;4369;47.842;13.096;2022-07-03T10:14:19;2.22;;;2.03;;
8663;SDS011;4369;47.842;13.096;2022-07-03T10:16:47;2.33;;;2.17;;
8663;SDS011;4369;47.842;13.096;2022-07-03T10:19:17;2.33;;;2.22;;
8663;SDS011;4369;47.842;13.096;2022-07-03T10:21:49;2.30;;;2.20;;
8663;SDS011;4369;47.842;13.096;2022-07-03T10:24:18;2.40;;;2.20;;
8663;SDS011;4369;47.842;13.096;2022-07-03T10:26:47;2.75;;;2.50;;
8663;SDS011;4369;47.842;13.096;2022-07-03T10:29:17;2.10;;;2.00;;
8663;SDS011;4369;47.842;13.096;2022-07-03T10:31:47;2.80;;;2.50;;
8663;SDS011;4369;47.842;13.096;2022-07-03T10:34:15;3.13;;;2.42;;
8663;SDS011;4369;47.842;13.096;2022-07-03T10:36:43;2.30;;;2.20;;
8663;SDS011;4369;47.842;13.096;2022-07-03T10:39:14;2.28;;;2.17;;
8663;SDS011;4369;47.842;13.096;2022-07-03T10:41:50;4.70;;;2.20;;
8663;SDS011;4369;47.842;13.096;2022-07-03T10:45:02;2.45;;;2.35;;
8663;SDS011;4369;47.842;13.096;2022-07-03T10:47:44;2.50;;;2.30;;
8663;SDS011;4369;47.842;13.096;2022-07-03T10:50:13;2.80;;;2.38;;
8663;SDS011;4369;47.842;13.096;2022-07-03T10:52:40;2.33;;;2.03;;
8663;SDS011;4369;47.842;13.096;2022-07-03T10:55:08;2.35;;;2.25;;
8663;SDS011;4369;47.842;13.096;2022-07-03T10:57:36;2.67;;;2.10;;
8663;SDS011;4369;47.842;13.096;2022-07-03T11:02:50;2.20;;;2.10;;
8663;SDS011;4369;47.842;13.096;2022-07-03T11:05:26;1.92;;;1.88;;
8663;SDS011;4369;47.842;13.096;2022-07-03T11:08:09;1.90;;;1.80;;
8663;SDS011;4369;47.842;13.096;2022-07-03T11:10:38;2.45;;;1.90;;
8663;SDS011;4369;47.842;13.096;2022-07-03T11:13:10;2.13;;;2.00;;
8663;SDS011;4369;47.842;13.096;2022-07-03T11:15:42;2.10;;;2.00;;
8663;SDS011;4369;47.842;13.096;2022-07-03T11:24:14;2.20;;;1.90;;
8663;SDS011;4369;47.842;13.096;2022-07-03T11:27:12;2.30;;;2.10;;
8663;SDS011;4369;47.842;13.096;2022-07-03T11:29:40;4.03;;;2.30;;
8663;SDS011;4369;47.842;13.096;2022-07-03T11:38:16;2.00;;;1.90;;
8663;SDS011;4369;47.842;13.096;2022-07-03T11:40:46;2.00;;;1.80;;
8663;SDS011;4369;47.842;13.096;2022-07-03T11:43:14;2.10;;;2.00;;
8663;SDS011;4369;47.842;13.096;2022-07-03T11:45:41;2.15;;;2.05;;
8663;SDS011;4369;47.842;13.096;2022-07-03T11:48:09;2.00;;;1.90;;
8663;SDS011;4369;47.842;13.096;2022-07-03T11:50:38;2.33;;;1.80;;
8663;SDS011;4369;47.842;13.096;2022-07-03T11:53:20;3.15;;;2.30;;
8663;SDS011;4369;47.842;13.096;2022-07-03T11:55:49;2.10;;;1.90;;
8663;SDS011;4369;47.842;13.096;2022-07-03T11:58:17;1.98;;;1.85;;
8663;SDS011;4369;47.842;13.096;2022-07-03T12:00:47;2.30;;;2.10;;
8663;SDS011;4369;47.842;13.096;2022-07-03T12:03:17;1.83;;;1.73;;
8663;SDS011;4369;47.842;13.096;2022-07-03T12:05:51;1.83;;;1.73;;
8663;SDS011;4369;47.842;13.096;2022-07-03T12:08:27;2.22;;;2.00;;
8663;SDS011;4369;47.842;13.096;2022-07-03T12:10:56;1.75;;;1.70;;
8663;SDS011;4369;47.842;13.096;2022-07-03T12:13:24;2.42;;;2.10;;
8663;SDS011;4369;47.842;13.096;2022-07-03T12:15:52;1.98;;;1.88;;
8663;SDS011;4369;47.842;13.096;2022-07-03T12:18:19;1.80;;;1.70;;
8663;SDS011;4369;47.842;13.096;2022-07-03T12:20:47;1.40;;;1.40;;
8663;SDS011;4369;47.842;13.096;2022-07-03T12:23:14;1.80;;;1.70;;
8663;SDS011;4369;47.842;13.096;2022-07-03T12:25:42;2.00;;;1.90;;
8663;SDS011;4369;47.842;13.096;2022-07-03T12:28:09;2.35;;;1.90;;
8663;SDS011;4369;47.842;13.096;2022-07-03T12:30:36;1.77;;;1.67;;
8663;SDS011;4369;47.842;13.096;2022-07-03T12:33:04;1.55;;;1.45;;
8663;SDS011;4369;47.842;13.096;2022-07-03T12:35:32;2.42;;;1.70;;
8663;SDS011;4369;47.842;13.096;2022-07-03T12:37:58;1.40;;;1.40;;
8663;SDS011;4369;47.842;13.096;2022-07-03T12:40:25;1.40;;;1.40;;
8663;SDS011;4369;47.842;13.096;2022-07-03T12:42:54;2.40;;;1.70;;
8663;SDS011;4369;47.842;13.096;2022-07-03T12:45:22;2.30;;;1.60;;
8663;SDS011;4369;47.842;13.096;2022-07-03T12:47:56;2.10;;;2.00;;
8663;SDS011;4369;47.842;13.096;2022-07-03T12:50:24;1.33;;;1.33;;
8663;SDS011;4369;47.842;13.096;2022-07-03T12:52:52;1.30;;;1.30;;
8663;SDS011;4369;47.842;13.096;2022-07-03T12:55:23;3.40;;;1.60;;
8663;SDS011;4369;47.842;13.096;2022-07-03T13:00:57;1.70;;;1.60;;
8663;SDS011;4369;47.842;13.096;2022-07-03T13:03:27;1.25;;;1.23;;
8663;SDS011;4369;47.842;13.096;2022-07-03T13:05:55;1.60;;;1.50;;
8663;SDS011;4369;47.842;13.096;2022-07-03T13:08:22;1.45;;;1.40;;
8663;SDS011;4369;47.842;13.096;2022-07-03T13:10:55;1.60;;;1.50;;
8663;SDS011;4369;47.842;13.096;2022-07-03T13:13:24;1.80;;;1.70;;
8663;SDS011;4369;47.842;13.096;2022-07-03T13:15:51;1.20;;;1.20;;
8663;SDS011;4369;47.842;13.096;2022-07-03T13:18:19;1.30;;;1.30;;
8663;SDS011;4369;47.842;13.096;2022-07-03T13:20:46;1.40;;;1.40;;
8663;SDS011;4369;47.842;13.096;2022-07-03T13:23:13;1.40;;;1.40;;
8663;SDS011;4369;47.842;13.096;2022-07-03T13:25:39;1.60;;;1.50;;
8663;SDS011;4369;47.842;13.096;2022-07-03T13:28:09;1.42;;;1.42;;
8663;SDS011;4369;47.842;13.096;2022-07-03T13:30:38;1.88;;;1.58;;
8663;SDS011;4369;47.842;13.096;2022-07-03T13:33:06;1.60;;;1.60;;
8663;SDS011;4369;47.842;13.096;2022-07-03T13:35:34;1.40;;;1.40;;
8663;SDS011;4369;47.842;13.096;2022-07-03T13:38:02;1.58;;;1.40;;
8663;SDS011;4369;47.842;13.096;2022-07-03T13:40:29;1.52;;;1.42;;
8663;SDS011;4369;47.842;13.096;2022-07-03T13:42:56;1.60;;;1.50;;
8663;SDS011;4369;47.842;13.096;2022-07-03T13:45:23;1.63;;;1.52;;
8663;SDS011;4369;47.842;13.096;2022-07-03T13:47:51;1.33;;;1.23;;
8663;SDS011;4369;47.842;13.096;2022-07-03T13:50:18;1.55;;;1.40;;
8663;SDS011;4369;47.842;13.096;2022-07-03T13:52:45;1.45;;;1.40;;
8663;SDS011;4369;47.842;13.096;2022-07-03T13:55:12;1.50;;;1.40;;
8663;SDS011;4369;47.842;13.096;2022-07-03T13:57:40;1.58;;;1.48;;
8663;SDS011;4369;47.842;13.096;2022-07-03T14:00:07;1.33;;;1.33;;
8663;SDS011;4369;47.842;13.096;2022-07-03T14:02:36;1.50;;;1.45;;
8663;SDS011;4369;47.842;13.096;2022-07-03T14:05:06;1.52;;;1.40;;
8663;SDS011;4369;47.842;13.096;2022-07-03T14:07:33;1.90;;;1.38;;
8663;SDS011;4369;47.842;13.096;2022-07-03T14:10:00;1.40;;;1.30;;
8663;SDS011;4369;47.842;13.096;2022-07-03T14:12:27;2.58;;;1.60;;
8663;SDS011;4369;47.842;13.096;2022-07-03T14:14:54;1.40;;;1.40;;
8663;SDS011;4369;47.842;13.096;2022-07-03T14:17:21;1.58;;;1.40;;
8663;SDS011;4369;47.842;13.096;2022-07-03T14:19:48;2.20;;;1.40;;
8663;SDS011;4369;47.842;13.096;2022-07-03T14:22:17;1.60;;;1.50;;
8663;SDS011;4369;47.842;13.096;2022-07-03T14:24:43;1.40;;;1.30;;
8663;SDS011;4369;47.842;13.096;2022-07-03T14:27:10;1.40;;;1.40;;
8663;SDS011;4369;47.842;13.096;2022-07-03T14:29:55;1.17;;;1.17;;
8663;SDS011;4369;47.842;13.096;2022-07-03T14:32:39;1.20;;;1.20;;
8663;SDS011;4369;47.842;13.096;2022-07-03T14:35:07;1.25;;;1.25;;
8663;SDS011;4369;47.842;13.096;2022-07-03T14:37:37;1.27;;;1.27;;
8663;SDS011;4369;47.842;13.096;2022-07-03T14:40:04;1.70;;;1.55;;
8663;SDS011;4369;47.842;13.096;2022-07-03T14:42:32;1.50;;;1.40;;
8663;SDS011;4369;47.842;13.096;2022-07-03T14:44:58;1.60;;;1.50;;
8663;SDS011;4369;47.842;13.096;2022-07-03T14:47:25;1.35;;;1.35;;
8663;SDS011;4369;47.842;13.096;2022-07-03T14:49:52;1.23;;;1.23;;
8663;SDS011;4369;47.842;13.096;2022-07-03T14:52:19;1.23;;;1.23;;
8663;SDS011;4369;47.842;13.096;2022-07-03T14:54:47;1.48;;;1.48;;
8663;SDS011;4369;47.842;13.096;2022-07-03T14:57:24;2.05;;;1.50;;
8663;SDS011;4369;47.842;13.096;2022-07-03T15:03:07;1.50;;;1.40;;
8663;SDS011;4369;47.842;13.096;2022-07-03T15:05:39;1.88;;;1.40;;
8663;SDS011;4369;47.842;13.096;2022-07-03T15:08:11;1.23;;;1.23;;
8663;SDS011;4369;47.842;13.096;2022-07-03T15:11:01;3.47;;;1.30;;
8663;SDS011;4369;47.842;13.096;2022-07-03T15:13:32;1.50;;;1.40;;
8663;SDS011;4369;47.842;13.096;2022-07-03T15:16:00;1.48;;;1.40;;
8663;SDS011;4369;47.842;13.096;2022-07-03T15:18:27;1.60;;;1.50;;
8663;SDS011;4369;47.842;13.096;2022-07-03T15:20:56;1.73;;;1.63;;
8663;SDS011;4369;47.842;13.096;2022-07-03T15:23:27;1.50;;;1.50;;
8663;SDS011;4369;47.842;13.096;2022-07-03T15:25:55;1.90;;;1.50;;
8663;SDS011;4369;47.842;13.096;2022-07-03T15:28:23;1.60;;;1.50;;
8663;SDS011;4369;47.842;13.096;2022-07-03T15:30:52;2.00;;;1.90;;
8663;SDS011;4369;47.842;13.096;2022-07-03T15:33:20;1.80;;;1.70;;
8663;SDS011;4369;47.842;13.096;2022-07-03T15:35:51;2.13;;;1.92;;
8663;SDS011;4369;47.842;13.096;2022-07-03T15:38:21;2.45;;;1.90;;
8663;SDS011;4369;47.842;13.096;2022-07-03T15:40:54;2.72;;;1.70;;
8663;SDS011;4369;47.842;13.096;2022-07-03T15:43:27;2.20;;;2.10;;
8663;SDS011;4369;47.842;13.096;2022-07-03T15:46:08;2.75;;;1.83;;
8663;SDS011;4369;47.842;13.096;2022-07-03T15:48:53;2.00;;;1.90;;
8663;SDS011;4369;47.842;13.096;2022-07-03T15:51:34;2.10;;;2.00;;
8663;SDS011;4369;47.842;13.096;2022-07-03T15:54:07;1.83;;;1.70;;